createdAt,value
2018-05-17T00:00:35.020Z,1005.88
2018-05-17T00:01:35.046Z,1005.87
2018-05-17T00:02:35.070Z,1005.87
2018-05-17T00:03:35.084Z,1005.86
2018-05-17T00:04:35.098Z,1005.88
2018-05-17T00:05:35.125Z,1005.86
2018-05-17T00:06:35.150Z,1005.88
2018-05-17T00:07:35.162Z,1005.84
2018-05-17T00:08:35.191Z,1005.87
2018-05-17T00:09:35.203Z,1005.84
2018-05-17T00:10:35.228Z,1005.87
2018-05-17T00:11:35.257Z,1005.86
2018-05-17T00:12:35.269Z,1005.83
2018-05-17T00:13:35.293Z,1005.86
2018-05-17T00:14:35.320Z,1005.88
2018-05-17T00:15:35.333Z,1005.86
2018-05-17T00:16:35.363Z,1005.94
2018-05-17T00:17:35.372Z,1005.87
2018-05-17T00:18:35.401Z,1005.90
2018-05-17T00:19:35.424Z,1005.96
2018-05-17T00:20:35.444Z,1005.92
2018-05-17T00:21:35.465Z,1005.94
2018-05-17T00:22:35.483Z,1005.93
2018-05-17T00:23:35.516Z,1005.94
2018-05-17T00:24:35.529Z,1005.97
2018-05-17T00:25:35.545Z,1005.92
2018-05-17T00:26:35.572Z,1005.96
2018-05-17T00:27:35.582Z,1005.90
2018-05-17T00:28:35.611Z,1005.92
2018-05-17T00:29:35.633Z,1005.93
2018-05-17T00:30:35.648Z,1005.94
2018-05-17T00:31:35.674Z,1005.97
2018-05-17T00:32:35.688Z,1005.99
2018-05-17T00:33:35.712Z,1006.00
2018-05-17T00:34:35.739Z,1005.98
2018-05-17T00:35:35.757Z,1005.96
2018-05-17T00:36:35.778Z,1005.98
2018-05-17T00:37:35.805Z,1005.96
2018-05-17T00:38:35.822Z,1005.94
2018-05-17T00:39:35.849Z,1005.96
2018-05-17T00:40:35.858Z,1005.96
2018-05-17T00:41:35.884Z,1005.93
2018-05-17T00:42:35.897Z,1005.92
2018-05-17T00:43:35.922Z,1005.94
2018-05-17T00:44:35.949Z,1005.93
2018-05-17T00:45:35.963Z,1005.91
2018-05-17T00:46:35.994Z,1005.93
2018-05-17T00:47:36.006Z,1005.88
2018-05-17T00:48:36.028Z,1005.87
2018-05-17T00:49:36.060Z,1005.88
2018-05-17T00:50:36.067Z,1005.86
2018-05-17T00:51:36.093Z,1005.87
2018-05-17T00:52:36.108Z,1005.88
2018-05-17T00:53:36.132Z,1005.89
2018-05-17T00:54:36.158Z,1005.87
2018-05-17T00:55:36.172Z,1005.90
2018-05-17T00:56:36.199Z,1005.90
2018-05-17T00:57:36.211Z,1005.91
2018-05-17T00:58:36.237Z,1005.87
2018-05-17T00:59:36.263Z,1005.88
2018-05-17T01:00:36.288Z,1005.90
2018-05-17T01:01:36.304Z,1005.88
2018-05-17T01:02:36.316Z,1005.85
2018-05-17T01:03:36.343Z,1005.84
2018-05-17T01:04:36.368Z,1005.84
2018-05-17T01:05:36.383Z,1005.88
2018-05-17T01:06:36.410Z,1005.85
2018-05-17T01:07:36.422Z,1005.83
2018-05-17T01:08:36.446Z,1005.85
2018-05-17T01:09:36.472Z,1005.84
2018-05-17T01:10:36.486Z,1005.82
2018-05-17T01:11:36.512Z,1005.78
2018-05-17T01:12:36.527Z,1005.81
2018-05-17T01:13:36.551Z,1005.78
2018-05-17T01:14:36.565Z,1005.79
2018-05-17T01:15:36.592Z,1005.80
2018-05-17T01:16:36.616Z,1005.77
2018-05-17T01:17:36.630Z,1005.75
2018-05-17T01:18:36.655Z,1005.78
2018-05-17T01:19:36.670Z,1005.80
2018-05-17T01:20:36.699Z,1005.81
2018-05-17T01:21:36.711Z,1005.78
2018-05-17T01:22:36.738Z,1005.76
2018-05-17T01:23:36.762Z,1005.75
2018-05-17T01:24:36.778Z,1005.77
2018-05-17T01:25:36.801Z,1005.75
2018-05-17T01:26:36.815Z,1005.77
2018-05-17T01:27:36.840Z,1005.78
2018-05-17T01:28:36.866Z,1005.76
2018-05-17T01:29:36.880Z,1005.75
2018-05-17T01:30:36.906Z,1005.72
2018-05-17T01:31:36.918Z,1005.76
2018-05-17T01:32:36.944Z,1005.71
2018-05-17T01:33:36.959Z,1005.72
2018-05-17T01:34:36.986Z,1005.72
2018-05-17T01:35:37.010Z,1005.71
2018-05-17T01:36:37.023Z,1005.65
2018-05-17T01:37:37.061Z,1005.66
2018-05-17T01:38:37.065Z,1005.64
2018-05-17T01:39:37.090Z,1005.61
2018-05-17T01:40:37.106Z,1005.61
2018-05-17T01:41:37.129Z,1005.60
2018-05-17T01:42:37.154Z,1005.61
2018-05-17T01:43:37.169Z,1005.64
2018-05-17T01:44:37.194Z,1005.62
2018-05-17T01:45:37.208Z,1005.64
2018-05-17T01:46:37.233Z,1005.62
2018-05-17T01:47:37.248Z,1005.63
2018-05-17T01:48:37.276Z,1005.57
2018-05-17T01:49:37.287Z,1005.61
2018-05-17T01:50:37.312Z,1005.63
2018-05-17T01:51:37.338Z,1005.60
2018-05-17T01:52:37.352Z,1005.64
2018-05-17T01:53:37.379Z,1005.59
2018-05-17T01:54:37.390Z,1005.65
2018-05-17T01:55:37.418Z,1005.61
2018-05-17T01:56:37.431Z,1005.64
2018-05-17T01:57:37.457Z,1005.65
2018-05-17T01:58:37.483Z,1005.63
2018-05-17T01:59:37.495Z,1005.63
2018-05-17T02:00:37.822Z,1005.65
2018-05-17T02:01:37.536Z,1005.62
2018-05-17T02:02:37.565Z,1005.68
2018-05-17T02:03:37.574Z,1005.66
2018-05-17T02:04:37.600Z,1005.63
2018-05-17T02:05:37.615Z,1005.65
2018-05-17T02:06:37.640Z,1005.66
2018-05-17T02:07:37.668Z,1005.68
2018-05-17T02:08:37.679Z,1005.66
2018-05-17T02:09:37.707Z,1005.69
2018-05-17T02:10:37.719Z,1005.67
2018-05-17T02:11:37.745Z,1005.72
2018-05-17T02:12:37.788Z,1005.74
2018-05-17T02:13:37.785Z,1005.71
2018-05-17T02:14:37.798Z,1005.74
2018-05-17T02:15:37.825Z,1005.76
2018-05-17T02:16:37.838Z,1005.77
2018-05-17T02:17:37.863Z,1005.75
2018-05-17T02:18:37.889Z,1005.78
2018-05-17T02:19:37.907Z,1005.74
2018-05-17T02:20:37.929Z,1005.78
2018-05-17T02:21:37.942Z,1005.75
2018-05-17T02:22:37.967Z,1005.77
2018-05-17T02:23:37.982Z,1005.78
2018-05-17T02:24:38.008Z,1005.77
2018-05-17T02:25:38.023Z,1005.79
2018-05-17T02:26:38.047Z,1005.78
2018-05-17T02:27:38.062Z,1005.76
2018-05-17T02:28:38.088Z,1005.73
2018-05-17T02:29:38.113Z,1005.75
2018-05-17T02:30:38.125Z,1005.72
2018-05-17T02:31:38.152Z,1005.71
2018-05-17T02:32:38.171Z,1005.69
2018-05-17T02:33:38.193Z,1005.73
2018-05-17T02:34:38.205Z,1005.71
2018-05-17T02:35:38.230Z,1005.72
2018-05-17T02:36:38.245Z,1005.74
2018-05-17T02:37:38.271Z,1005.75
2018-05-17T02:38:38.285Z,1005.76
2018-05-17T02:39:38.309Z,1005.79
2018-05-17T02:40:38.323Z,1005.79
2018-05-17T02:41:38.349Z,1005.81
2018-05-17T02:42:38.363Z,1005.80
2018-05-17T02:43:38.403Z,1005.77
2018-05-17T02:44:38.403Z,1005.80
2018-05-17T02:45:38.430Z,1005.80
2018-05-17T02:46:38.455Z,1005.80
2018-05-17T02:47:38.471Z,1005.79
2018-05-17T02:48:38.493Z,1005.82
2018-05-17T02:49:38.508Z,1005.86
2018-05-17T02:50:38.533Z,1005.81
2018-05-17T02:51:38.553Z,1005.83
2018-05-17T02:52:38.573Z,1005.83
2018-05-17T02:53:38.586Z,1005.81
2018-05-17T02:54:38.618Z,1005.80
2018-05-17T02:55:38.625Z,1005.77
2018-05-17T02:56:38.656Z,1005.77
2018-05-17T02:57:38.665Z,1005.72
2018-05-17T02:58:38.691Z,1005.73
2018-05-17T02:59:38.704Z,1005.74
2018-05-17T03:00:38.730Z,1005.79
2018-05-17T03:01:38.744Z,1005.84
2018-05-17T03:02:38.770Z,1005.80
2018-05-17T03:03:38.787Z,1005.79
2018-05-17T03:04:38.809Z,1005.82
2018-05-17T03:05:38.824Z,1005.77
2018-05-17T03:06:38.850Z,1005.78
2018-05-17T03:07:38.862Z,1005.82
2018-05-17T03:08:38.921Z,1005.82
2018-05-17T03:09:38.902Z,1005.86
2018-05-17T03:10:38.927Z,1005.84
2018-05-17T03:11:38.955Z,1005.82
2018-05-17T03:12:38.980Z,1005.84
2018-05-17T03:13:38.992Z,1005.82
2018-05-17T03:14:39.008Z,1005.81
2018-05-17T03:15:39.032Z,1005.82
2018-05-17T03:16:39.111Z,1005.85
2018-05-17T03:17:39.070Z,1005.88
2018-05-17T03:18:39.085Z,1005.87
2018-05-17T03:19:39.110Z,1005.91
2018-05-17T03:20:39.127Z,1005.91
2018-05-17T03:21:39.152Z,1005.96
2018-05-17T03:22:39.163Z,1005.96
2018-05-17T03:23:39.189Z,1005.96
2018-05-17T03:24:39.202Z,1005.95
2018-05-17T03:25:39.228Z,1005.94
2018-05-17T03:26:39.242Z,1005.96
2018-05-17T03:27:39.269Z,1005.99
2018-05-17T03:28:39.281Z,1005.98
2018-05-17T03:29:39.307Z,1005.96
2018-05-17T03:30:39.322Z,1005.97
2018-05-17T03:31:39.348Z,1005.98
2018-05-17T03:32:39.361Z,1005.99
2018-05-17T03:33:39.390Z,1006.00
2018-05-17T03:34:39.411Z,1005.99
2018-05-17T03:35:39.425Z,1006.04
2018-05-17T03:36:39.439Z,1006.03
2018-05-17T03:37:39.465Z,1006.00
2018-05-17T03:38:39.480Z,1006.00
2018-05-17T03:39:39.505Z,1006.01
2018-05-17T03:40:39.517Z,1006.01
2018-05-17T03:41:39.557Z,1006.06
2018-05-17T03:42:39.559Z,1006.04
2018-05-17T03:43:39.585Z,1006.05
2018-05-17T03:44:39.597Z,1006.06
2018-05-17T03:45:39.623Z,1006.06
2018-05-17T03:46:39.637Z,1006.10
2018-05-17T03:47:39.664Z,1006.09
2018-05-17T03:48:39.688Z,1006.08
2018-05-17T03:49:39.702Z,1006.08
2018-05-17T03:50:39.715Z,1006.09
2018-05-17T03:51:39.742Z,1006.11
2018-05-17T03:52:39.754Z,1006.12
2018-05-17T03:53:39.781Z,1006.11
2018-05-17T03:54:39.795Z,1006.10
2018-05-17T03:55:39.821Z,1006.14
2018-05-17T03:56:39.850Z,1006.10
2018-05-17T03:57:39.860Z,1006.11
2018-05-17T03:58:39.874Z,1006.12
2018-05-17T03:59:39.900Z,1006.13
2018-05-17T04:00:39.912Z,1006.16
2018-05-17T04:01:39.942Z,1006.14
2018-05-17T04:02:39.953Z,1006.16
2018-05-17T04:03:39.978Z,1006.19
2018-05-17T04:04:39.991Z,1006.20
2018-05-17T04:05:40.017Z,1006.18
2018-05-17T04:06:40.032Z,1006.20
2018-05-17T04:07:40.058Z,1006.22
2018-05-17T04:08:40.147Z,1006.25
2018-05-17T04:09:40.096Z,1006.20
2018-05-17T04:10:40.112Z,1006.24
2018-05-17T04:11:40.137Z,1006.23
2018-05-17T04:12:40.151Z,1006.28
2018-05-17T04:13:40.175Z,1006.24
2018-05-17T04:14:40.196Z,1006.26
2018-05-17T04:15:40.215Z,1006.29
2018-05-17T04:16:40.228Z,1006.29
2018-05-17T04:17:40.267Z,1006.24
2018-05-17T04:18:40.272Z,1006.28
2018-05-17T04:19:40.294Z,1006.25
2018-05-17T04:20:40.306Z,1006.26
2018-05-17T04:21:40.332Z,1006.31
2018-05-17T04:22:40.347Z,1006.28
2018-05-17T04:23:40.372Z,1006.30
2018-05-17T04:24:40.386Z,1006.30
2018-05-17T04:25:40.412Z,1006.31
2018-05-17T04:26:40.425Z,1006.35
2018-05-17T04:27:40.452Z,1006.32
2018-05-17T04:28:40.465Z,1006.32
2018-05-17T04:29:40.490Z,1006.36
2018-05-17T04:30:40.504Z,1006.36
2018-05-17T04:31:40.533Z,1006.34
2018-05-17T04:32:40.544Z,1006.34
2018-05-17T04:33:40.569Z,1006.39
2018-05-17T04:34:40.583Z,1006.38
2018-05-17T04:35:40.609Z,1006.36
2018-05-17T04:36:40.622Z,1006.33
2018-05-17T04:37:40.649Z,1006.35
2018-05-17T04:38:40.662Z,1006.35
2018-05-17T04:39:40.688Z,1006.34
2018-05-17T04:40:40.702Z,1006.35
2018-05-17T04:41:40.726Z,1006.36
2018-05-17T04:42:40.742Z,1006.38
2018-05-17T04:43:40.767Z,1006.38
2018-05-17T04:44:40.784Z,1006.41
2018-05-17T04:45:40.805Z,1006.40
2018-05-17T04:46:40.820Z,1006.41
2018-05-17T04:47:40.846Z,1006.44
2018-05-17T04:48:40.859Z,1006.45
2018-05-17T04:49:40.886Z,1006.52
2018-05-17T04:50:40.898Z,1006.54
2018-05-17T04:51:40.932Z,1006.56
2018-05-17T04:52:40.938Z,1006.56
2018-05-17T04:53:40.967Z,1006.60
2018-05-17T04:54:41.062Z,1006.56
2018-05-17T04:55:41.004Z,1006.60
2018-05-17T04:56:41.017Z,1006.64
2018-05-17T04:57:41.044Z,1006.65
2018-05-17T04:58:41.068Z,1006.65
2018-05-17T04:59:41.083Z,1006.64
2018-05-17T05:00:41.108Z,1006.67
2018-05-17T05:01:41.122Z,1006.66
2018-05-17T05:02:41.197Z,1006.64
2018-05-17T05:03:41.163Z,1006.67
2018-05-17T05:04:41.187Z,1006.70
2018-05-17T05:05:41.200Z,1006.75
2018-05-17T05:06:41.226Z,1006.78
2018-05-17T05:07:41.257Z,1006.72
2018-05-17T05:08:41.271Z,1006.76
2018-05-17T05:09:41.293Z,1006.76
2018-05-17T05:10:41.305Z,1006.77
2018-05-17T05:11:41.333Z,1006.77
2018-05-17T05:12:41.345Z,1006.72
2018-05-17T05:13:41.373Z,1006.72
2018-05-17T05:14:41.397Z,1006.80
2018-05-17T05:15:41.411Z,1006.73
2018-05-17T05:16:41.435Z,1006.80
2018-05-17T05:17:41.454Z,1006.79
2018-05-17T05:18:41.479Z,1006.82
2018-05-17T05:19:41.489Z,1006.84
2018-05-17T05:20:41.516Z,1006.82
2018-05-17T05:21:41.540Z,1006.83
2018-05-17T05:22:41.555Z,1006.89
2018-05-17T05:23:41.581Z,1006.87
2018-05-17T05:24:41.594Z,1006.94
2018-05-17T05:25:41.619Z,1006.96
2018-05-17T05:26:41.645Z,1006.94
2018-05-17T05:27:41.674Z,1006.99
2018-05-17T05:28:41.685Z,1006.94
2018-05-17T05:29:41.711Z,1006.94
2018-05-17T05:30:41.724Z,1006.89
2018-05-17T05:31:41.821Z,1006.89
2018-05-17T05:32:41.764Z,1006.89
2018-05-17T05:33:41.790Z,1006.86
2018-05-17T05:34:41.816Z,1006.78
2018-05-17T05:35:41.828Z,1006.88
2018-05-17T05:36:41.856Z,1006.82
2018-05-17T05:37:41.881Z,1006.87
2018-05-17T05:38:41.901Z,1006.92
2018-05-17T05:39:41.921Z,1006.89
2018-05-17T05:40:41.936Z,1006.83
2018-05-17T05:41:41.960Z,1006.91
2018-05-17T05:42:41.998Z,1006.92
2018-05-17T05:43:42.001Z,1006.94
2018-05-17T05:44:42.026Z,1006.95
2018-05-17T05:45:42.052Z,1006.91
2018-05-17T05:46:42.066Z,1006.90
2018-05-17T05:47:42.092Z,1006.91
2018-05-17T05:48:42.116Z,1006.89
2018-05-17T05:49:42.131Z,1006.93
2018-05-17T05:50:42.157Z,1006.94
2018-05-17T05:51:42.184Z,1006.92
2018-05-17T05:52:42.196Z,1006.98
2018-05-17T05:53:42.221Z,1006.94
2018-05-17T05:54:42.247Z,1006.94
2018-05-17T05:55:42.262Z,1006.94
2018-05-17T05:56:42.287Z,1006.99
2018-05-17T05:57:42.301Z,1007.01
2018-05-17T05:58:42.326Z,1006.98
2018-05-17T05:59:42.352Z,1007.03
2018-05-17T06:00:42.369Z,1007.02
2018-05-17T06:01:42.392Z,1007.02
2018-05-17T06:02:42.419Z,1007.01
2018-05-17T06:03:42.444Z,1007.03
2018-05-17T06:04:42.457Z,1007.00
2018-05-17T06:05:42.483Z,1007.02
2018-05-17T06:06:42.498Z,1007.03
2018-05-17T06:07:42.524Z,1007.12
2018-05-17T06:08:42.549Z,1007.17
2018-05-17T06:09:42.583Z,1007.16
2018-05-17T06:10:42.589Z,1007.16
2018-05-17T06:11:42.614Z,1007.16
2018-05-17T06:12:42.627Z,1007.17
2018-05-17T06:13:42.659Z,1007.15
2018-05-17T06:14:42.680Z,1007.19
2018-05-17T06:15:42.706Z,1007.19
2018-05-17T06:16:42.718Z,1007.19
2018-05-17T06:17:42.745Z,1007.21
2018-05-17T06:18:42.774Z,1007.26
2018-05-17T06:19:42.785Z,1007.22
2018-05-17T06:20:42.810Z,1007.29
2018-05-17T06:21:42.837Z,1007.22
2018-05-17T06:22:42.862Z,1007.29
2018-05-17T06:23:42.930Z,1007.28
2018-05-17T06:24:42.902Z,1007.27
2018-05-17T06:25:42.930Z,1007.25
2018-05-17T06:26:42.954Z,1007.23
2018-05-17T06:27:42.967Z,1007.25
2018-05-17T06:28:42.999Z,1007.28
2018-05-17T06:29:43.020Z,1007.28
2018-05-17T06:30:43.048Z,1007.30
2018-05-17T06:31:43.075Z,1007.42
2018-05-17T06:32:43.097Z,1007.30
2018-05-17T06:33:43.110Z,1007.38
2018-05-17T06:34:43.135Z,1007.26
2018-05-17T06:35:43.162Z,1007.33
2018-05-17T06:36:43.189Z,1007.32
2018-05-17T06:37:43.268Z,1007.29
2018-05-17T06:38:43.252Z,1007.31
2018-05-17T06:39:43.266Z,1007.38
2018-05-17T06:40:43.311Z,1007.32
2018-05-17T06:41:43.318Z,1007.37
2018-05-17T06:42:43.344Z,1007.37
2018-05-17T06:43:43.369Z,1007.39
2018-05-17T06:44:43.409Z,1007.38
2018-05-17T06:45:43.421Z,1007.39
2018-05-17T06:46:43.448Z,1007.42
2018-05-17T06:47:43.477Z,1007.46
2018-05-17T06:48:43.500Z,1007.41
2018-05-17T06:49:43.525Z,1007.42
2018-05-17T06:50:43.564Z,1007.42
2018-05-17T06:51:43.590Z,1007.44
2018-05-17T06:52:43.617Z,1007.40
2018-05-17T06:53:43.642Z,1007.43
2018-05-17T06:54:43.668Z,1007.46
2018-05-17T06:55:43.693Z,1007.38
2018-05-17T06:56:43.720Z,1007.41
2018-05-17T06:57:43.747Z,1007.35
2018-05-17T06:58:43.784Z,1007.36
2018-05-17T06:59:43.810Z,1007.39
2018-05-17T07:00:43.837Z,1007.43
2018-05-17T07:01:43.862Z,1007.43
2018-05-17T07:02:43.887Z,1007.48
2018-05-17T07:03:43.913Z,1007.44
2018-05-17T07:04:43.940Z,1007.47
2018-05-17T07:05:43.980Z,1007.40
2018-05-17T07:06:44.004Z,1007.47
2018-05-17T07:07:44.031Z,1007.43
2018-05-17T07:08:44.056Z,1007.41
2018-05-17T07:09:44.088Z,1007.38
2018-05-17T07:10:44.120Z,1007.36
2018-05-17T07:11:44.146Z,1007.42
2018-05-17T07:12:44.173Z,1007.41
2018-05-17T07:13:44.198Z,1007.35
2018-05-17T07:14:44.226Z,1007.38
2018-05-17T07:15:44.264Z,1007.44
2018-05-17T07:16:44.289Z,1007.41
2018-05-17T07:17:44.316Z,1007.45
2018-05-17T07:18:44.604Z,1007.41
2018-05-17T07:19:44.379Z,1007.45
2018-05-17T07:20:44.417Z,1007.44
2018-05-17T07:21:44.433Z,1007.47
2018-05-17T07:22:44.471Z,1007.47
2018-05-17T07:23:44.496Z,1007.54
2018-05-17T07:24:44.522Z,1007.48
2018-05-17T07:25:44.548Z,1007.53
2018-05-17T07:26:44.586Z,1007.52
2018-05-17T07:27:44.615Z,1007.51
2018-05-17T07:28:44.646Z,1007.57
2018-05-17T07:29:44.679Z,1007.52
2018-05-17T07:30:44.702Z,1007.55
2018-05-17T07:31:44.741Z,1007.51
2018-05-17T07:32:44.766Z,1007.50
2018-05-17T07:33:44.794Z,1007.55
2018-05-17T07:34:44.833Z,1007.53
2018-05-17T07:35:44.857Z,1007.58
2018-05-17T07:36:44.884Z,1007.57
2018-05-17T07:37:44.922Z,1007.59
2018-05-17T07:38:44.948Z,1007.64
2018-05-17T07:39:44.987Z,1007.61
2018-05-17T07:40:45.013Z,1007.59
2018-05-17T07:41:45.040Z,1007.60
2018-05-17T07:42:45.076Z,1007.57
2018-05-17T07:43:45.103Z,1007.57
2018-05-17T07:44:45.142Z,1007.57
2018-05-17T07:45:45.169Z,1007.64
2018-05-17T07:46:45.252Z,1007.71
2018-05-17T07:47:45.231Z,1007.69
2018-05-17T07:48:45.257Z,1007.61
2018-05-17T07:49:45.297Z,1007.63
2018-05-17T07:50:45.322Z,1007.62
2018-05-17T07:51:45.361Z,1007.64
2018-05-17T07:52:45.390Z,1007.71
2018-05-17T07:53:45.412Z,1007.69
2018-05-17T07:54:45.452Z,1007.72
2018-05-17T07:55:45.484Z,1007.63
2018-05-17T07:56:45.515Z,1007.73
2018-05-17T07:57:45.541Z,1007.65
2018-05-17T07:58:45.568Z,1007.67
2018-05-17T07:59:45.606Z,1007.74
2018-05-17T08:00:45.632Z,1007.70
2018-05-17T08:01:45.701Z,1007.71
2018-05-17T08:02:45.706Z,1007.75
2018-05-17T08:03:45.735Z,1007.76
2018-05-17T08:04:45.762Z,1007.75
2018-05-17T08:05:45.786Z,1007.77
2018-05-17T08:06:45.826Z,1007.79
2018-05-17T08:07:45.851Z,1007.83
2018-05-17T08:08:45.877Z,1007.84
2018-05-17T08:09:45.916Z,1007.85
2018-05-17T08:10:45.941Z,1007.81
2018-05-17T08:11:45.981Z,1007.82
2018-05-17T08:12:46.006Z,1007.89
2018-05-17T08:13:46.032Z,1007.86
2018-05-17T08:14:46.070Z,1007.87
2018-05-17T08:15:46.098Z,1007.83
2018-05-17T08:16:46.136Z,1007.95
2018-05-17T08:17:46.174Z,1007.87
2018-05-17T08:18:46.200Z,1007.87
2018-05-17T08:19:46.226Z,1007.90
2018-05-17T08:20:46.264Z,1007.90
2018-05-17T08:21:46.289Z,1007.90
2018-05-17T08:22:46.328Z,1007.90
2018-05-17T08:23:46.359Z,1007.96
2018-05-17T08:24:46.392Z,1008.02
2018-05-17T08:25:46.421Z,1007.92
2018-05-17T08:26:46.458Z,1007.87
2018-05-17T08:27:46.485Z,1007.86
2018-05-17T08:28:46.521Z,1007.82
2018-05-17T08:29:46.547Z,1007.84
2018-05-17T08:30:46.573Z,1007.89
2018-05-17T08:31:46.612Z,1007.92
2018-05-17T08:32:46.639Z,1007.86
2018-05-17T08:33:46.677Z,1007.84
2018-05-17T08:34:46.703Z,1007.85
2018-05-17T08:35:46.729Z,1007.91
2018-05-17T08:36:46.773Z,1007.94
2018-05-17T08:37:46.794Z,1007.93
2018-05-17T08:38:46.819Z,1007.94
2018-05-17T08:39:46.857Z,1007.90
2018-05-17T08:40:46.882Z,1007.90
2018-05-17T08:41:46.922Z,1007.98
2018-05-17T08:42:46.962Z,1007.94
2018-05-17T08:43:46.975Z,1008.07
2018-05-17T08:44:47.012Z,1008.05
2018-05-17T08:45:47.053Z,1007.97
2018-05-17T08:46:47.074Z,1008.09
2018-05-17T08:47:47.103Z,1008.14
2018-05-17T08:48:47.128Z,1008.25
2018-05-17T08:49:47.155Z,1008.22
2018-05-17T08:50:47.191Z,1008.20
2018-05-17T08:52:47.244Z,1008.12
2018-05-17T08:53:47.284Z,1007.98
2018-05-17T08:54:47.310Z,1008.04
2018-05-17T08:55:47.335Z,1008.01
2018-05-17T08:56:47.374Z,1007.98
2018-05-17T08:57:47.400Z,1008.00
2018-05-17T08:58:47.439Z,1008.10
2018-05-17T08:59:47.556Z,1008.04
2018-05-17T09:00:47.502Z,1007.93
2018-05-17T09:01:47.529Z,1008.01
2018-05-17T09:02:47.554Z,1008.10
2018-05-17T09:03:47.594Z,1008.03
2018-05-17T09:04:47.619Z,1008.04
2018-05-17T09:05:47.647Z,1008.07
2018-05-17T09:06:47.697Z,1008.27
2018-05-17T09:07:47.712Z,1008.21
2018-05-17T09:08:47.748Z,1008.20
2018-05-17T09:09:47.779Z,1008.14
2018-05-17T09:10:47.804Z,1008.17
2018-05-17T09:11:47.848Z,1008.11
2018-05-17T09:12:47.864Z,1008.17
2018-05-17T09:13:47.914Z,1008.21
2018-05-17T09:14:47.929Z,1008.22
2018-05-17T09:15:47.967Z,1008.32
2018-05-17T09:16:47.993Z,1008.20
2018-05-17T09:17:48.019Z,1008.14
2018-05-17T09:18:48.057Z,1008.18
2018-05-17T09:19:48.084Z,1008.36
2018-05-17T09:20:48.123Z,1008.43
2018-05-17T09:21:48.147Z,1008.41
2018-05-17T09:22:48.188Z,1008.46
2018-05-17T09:23:48.214Z,1008.39
2018-05-17T09:24:48.245Z,1008.34
2018-05-17T09:25:48.276Z,1008.42
2018-05-17T09:26:48.303Z,1008.38
2018-05-17T09:27:48.342Z,1008.26
2018-05-17T09:28:48.368Z,1008.31
2018-05-17T09:29:48.394Z,1008.37
2018-05-17T09:30:48.482Z,1008.31
2018-05-17T09:31:48.464Z,1008.36
2018-05-17T09:32:48.483Z,1008.30
2018-05-17T09:33:48.510Z,1008.38
2018-05-17T09:34:48.552Z,1008.56
2018-05-17T09:35:48.593Z,1008.56
2018-05-17T09:36:48.602Z,1008.58
2018-05-17T09:37:48.628Z,1008.64
2018-05-17T09:38:48.665Z,1008.58
2018-05-17T09:39:48.689Z,1008.40
2018-05-17T09:40:48.717Z,1008.41
2018-05-17T09:41:48.755Z,1008.37
2018-05-17T09:42:48.784Z,1008.35
2018-05-17T09:43:48.818Z,1008.44
2018-05-17T09:44:48.844Z,1008.51
2018-05-17T09:45:48.871Z,1008.43
2018-05-17T09:46:48.910Z,1008.47
2018-05-17T09:47:48.936Z,1008.52
2018-05-17T09:48:48.973Z,1008.48
2018-05-17T09:49:48.999Z,1008.54
2018-05-17T09:50:49.039Z,1008.49
2018-05-17T09:51:49.065Z,1008.62
2018-05-17T09:52:49.104Z,1008.58
2018-05-17T09:53:49.128Z,1008.47
2018-05-17T09:54:49.166Z,1008.45
2018-05-17T09:55:49.193Z,1008.43
2018-05-17T09:56:49.230Z,1008.48
2018-05-17T09:57:49.257Z,1008.73
2018-05-17T09:58:49.296Z,1008.73
2018-05-17T09:59:49.323Z,1008.67
2018-05-17T10:00:49.361Z,1008.59
2018-05-17T10:01:49.389Z,1008.61
2018-05-17T10:02:49.424Z,1008.66
2018-05-17T10:03:49.451Z,1008.59
2018-05-17T10:04:49.482Z,1008.61
2018-05-17T10:05:49.516Z,1008.59
2018-05-17T10:06:49.540Z,1008.63
2018-05-17T10:07:49.585Z,1008.62
2018-05-17T10:08:49.609Z,1008.65
2018-05-17T10:09:49.643Z,1008.76
2018-05-17T10:10:49.682Z,1008.72
2018-05-17T10:11:49.709Z,1008.63
2018-05-17T10:12:49.735Z,1008.66
2018-05-17T10:13:49.771Z,1008.50
2018-05-17T10:14:49.799Z,1008.54
2018-05-17T10:15:49.837Z,1008.48
2018-05-17T10:16:49.871Z,1008.48
2018-05-17T10:17:49.900Z,1008.51
2018-05-17T10:18:49.928Z,1008.45
2018-05-17T10:19:49.966Z,1008.49
2018-05-17T10:20:50.003Z,1008.47
2018-05-17T10:21:50.059Z,1008.29
2018-05-17T10:22:50.069Z,1008.38
2018-05-17T10:23:50.111Z,1008.51
2018-05-17T10:24:50.133Z,1008.53
2018-05-17T10:25:50.172Z,1008.58
2018-05-17T10:26:50.210Z,1008.52
2018-05-17T10:27:50.236Z,1008.54
2018-05-17T10:28:50.276Z,1008.51
2018-05-17T10:29:50.312Z,1008.51
2018-05-17T10:30:50.340Z,1008.43
2018-05-17T10:31:50.376Z,1008.54
2018-05-17T10:32:50.416Z,1008.52
2018-05-17T10:33:50.442Z,1008.58
2018-05-17T10:34:50.481Z,1008.58
2018-05-17T10:35:50.518Z,1008.48
2018-05-17T10:36:50.557Z,1008.46
2018-05-17T10:37:50.584Z,1008.44
2018-05-17T10:38:50.621Z,1008.45
2018-05-17T10:39:50.661Z,1008.48
2018-05-17T10:40:50.698Z,1008.56
2018-05-17T10:41:50.725Z,1008.51
2018-05-17T10:42:50.764Z,1008.60
2018-05-17T10:43:50.803Z,1008.50
2018-05-17T10:44:50.841Z,1008.54
2018-05-17T10:45:50.878Z,1008.54
2018-05-17T10:46:50.917Z,1008.60
2018-05-17T10:47:50.954Z,1008.48
2018-05-17T10:48:50.988Z,1008.38
2018-05-17T10:49:51.020Z,1008.48
2018-05-17T10:50:51.058Z,1008.44
2018-05-17T10:51:51.097Z,1008.42
2018-05-17T10:52:51.147Z,1008.39
2018-05-17T10:53:51.165Z,1008.40
2018-05-17T10:54:51.200Z,1008.43
2018-05-17T10:55:51.239Z,1008.60
2018-05-17T10:56:51.277Z,1008.54
2018-05-17T10:57:51.302Z,1008.57
2018-05-17T10:58:51.341Z,1008.55
2018-05-17T10:59:51.380Z,1008.50
2018-05-17T11:00:51.431Z,1008.49
2018-05-17T11:01:51.443Z,1008.54
2018-05-17T11:02:51.482Z,1008.50
2018-05-17T11:03:51.520Z,1008.54
2018-05-17T11:04:51.560Z,1008.52
2018-05-17T11:05:51.586Z,1008.41
2018-05-17T11:06:51.636Z,1008.49
2018-05-17T11:07:51.663Z,1008.55
2018-05-17T11:08:51.701Z,1008.57
2018-05-17T11:09:51.726Z,1008.46
2018-05-17T11:10:51.766Z,1008.51
2018-05-17T11:11:51.803Z,1008.47
2018-05-17T11:12:51.843Z,1008.50
2018-05-17T11:13:51.894Z,1008.50
2018-05-17T11:14:51.906Z,1008.57
2018-05-17T11:15:51.945Z,1008.58
2018-05-17T11:16:51.986Z,1008.61
2018-05-17T11:17:52.022Z,1008.58
2018-05-17T11:18:52.048Z,1008.64
2018-05-17T11:19:52.089Z,1008.61
2018-05-17T11:20:52.126Z,1008.59
2018-05-17T11:21:52.166Z,1008.57
2018-05-17T11:22:52.204Z,1008.64
2018-05-17T11:23:52.240Z,1008.57
2018-05-17T11:24:52.267Z,1008.60
2018-05-17T11:25:52.316Z,1008.62
2018-05-17T11:26:52.342Z,1008.58
2018-05-17T11:27:52.382Z,1008.60
2018-05-17T11:28:52.421Z,1008.53
2018-05-17T11:29:52.460Z,1008.56
2018-05-17T11:30:52.510Z,1008.52
2018-05-17T11:31:52.535Z,1008.61
2018-05-17T11:32:52.563Z,1008.59
2018-05-17T11:33:52.602Z,1008.57
2018-05-17T11:34:52.639Z,1008.54
2018-05-17T11:35:52.697Z,1008.57
2018-05-17T11:36:52.917Z,1008.58
2018-05-17T11:37:52.753Z,1008.58
2018-05-17T11:38:52.792Z,1008.53
2018-05-17T11:40:52.869Z,1008.51
2018-05-17T11:41:52.908Z,1008.52
2018-05-17T11:42:52.947Z,1008.50
2018-05-17T11:43:53.175Z,1008.55
2018-05-17T11:44:53.011Z,1008.59
2018-05-17T11:45:53.049Z,1008.62
2018-05-17T11:46:53.087Z,1008.61
2018-05-17T11:47:53.678Z,1008.56
2018-05-17T11:48:53.164Z,1008.61
2018-05-17T11:49:53.204Z,1008.55
2018-05-17T11:50:53.431Z,1008.54
2018-05-17T11:51:53.267Z,1008.57
2018-05-17T11:52:53.305Z,1008.54
2018-05-17T11:54:53.386Z,1008.48
2018-05-17T11:55:53.421Z,1008.45
2018-05-17T11:56:53.460Z,1008.53
2018-05-17T11:57:53.498Z,1008.52
2018-05-17T11:58:53.528Z,1008.55
2018-05-17T11:59:53.566Z,1008.54
2018-05-17T12:00:53.601Z,1008.56
2018-05-17T12:01:53.641Z,1008.56
2018-05-17T12:02:53.677Z,1008.59
2018-05-17T12:03:53.717Z,1008.68
2018-05-17T12:04:53.754Z,1008.61
2018-05-17T12:05:53.793Z,1008.60
2018-05-17T12:06:53.841Z,1008.59
2018-05-17T12:07:53.870Z,1008.54
2018-05-17T12:08:53.897Z,1008.57